Rio Grande, Ohio
Current Conditions -  °F | °C
As of 5:55 PM on Friday 28 Nov 2014 (Local Time) from K3I2 Reporting Station
Clear Clear  
Wind Chill:   Ceiling: Unl
Heat Index:   Visibility: 10mi
Dew Point: -6°   Wind: 0mph
Humidity: 60%   Direction: NA
Pressure: 30.28"   Gusts: NA
Location:  38.88°N, 82.38°W
Report Text: K3I2 282255Z AUTO 00000KT 10SM CLR 01/M06 A3028 RMK AO2
Loading
Personal Weather Stations






























Interactive Weather Map New forecast layout! Learn more

10-Day Weather Forecast

Advertisements
Track Severe Weather on mobile